Terminal Aerodrome Forecast
Issued by NWS Twin Cities, MN

Home | Current Version | Previous Version | Graphics & Text | Print | Product List | Glossary On
Versions: 1 2 3 4 5 6 7 8 9 10 11 12 13 14 15 16 17 18 19 20 21 22 23 24 25 26 27
000
FTUS43 KMPX 281138
TAFMSP
TAF
KMSP 281138Z 2812/2918 08003KT P6SM FEW250
      TEMPO 2812/2813 5SM BR
     FM281800 06007KT P6SM SCT250
     FM290600 07005KT P6SM BKN200=

USA.gov is the U.S. government's official web portal to all federal, state and local government web resources and services.